createdAt,value
2022-07-30T00:00:30.983Z,20.53
2022-07-30T00:02:58.949Z,20.53
2022-07-30T00:05:27.054Z,20.52
2022-07-30T00:07:56.373Z,20.53
2022-07-30T00:10:24.481Z,20.55
2022-07-30T00:12:52.570Z,20.53
2022-07-30T00:15:20.710Z,20.57
2022-07-30T00:17:49.168Z,20.56
2022-07-30T00:20:18.474Z,20.61
2022-07-30T00:22:47.078Z,20.62
2022-07-30T00:25:16.649Z,20.61
2022-07-30T00:27:50.454Z,20.61
2022-07-30T00:30:18.487Z,20.65
2022-07-30T00:32:46.457Z,20.62
2022-07-30T00:35:15.082Z,20.64
2022-07-30T00:37:43.020Z,20.59
2022-07-30T00:40:11.553Z,20.60
2022-07-30T00:42:42.928Z,20.63
2022-07-30T00:45:12.560Z,20.66
2022-07-30T00:47:41.291Z,20.65
2022-07-30T00:50:11.922Z,20.63
2022-07-30T00:52:41.372Z,20.59
2022-07-30T00:55:12.597Z,20.62
2022-07-30T00:57:42.872Z,20.60
2022-07-30T01:00:14.450Z,20.52
2022-07-30T01:02:42.544Z,20.50
2022-07-30T01:05:11.135Z,20.51
2022-07-30T01:07:39.140Z,20.53
2022-07-30T01:10:08.803Z,20.41
2022-07-30T01:12:38.265Z,20.40
2022-07-30T01:15:09.717Z,20.40
2022-07-30T01:17:38.151Z,20.34
2022-07-30T01:20:08.144Z,20.29
2022-07-30T01:23:03.709Z,20.28
2022-07-30T01:25:59.580Z,20.29
2022-07-30T01:28:33.391Z,20.25
2022-07-30T01:31:02.840Z,20.30
2022-07-30T01:33:32.707Z,20.25
2022-07-30T01:36:02.463Z,20.13
2022-07-30T01:38:35.215Z,20.16
2022-07-30T01:41:07.165Z,20.14
2022-07-30T01:43:36.219Z,20.16
2022-07-30T01:46:05.365Z,20.16
2022-07-30T01:48:37.492Z,20.12
2022-07-30T01:51:07.176Z,20.11
2022-07-30T01:53:38.920Z,20.03
2022-07-30T01:56:11.433Z,20.05
2022-07-30T01:58:41.254Z,19.98
2022-07-30T02:01:09.302Z,19.97
2022-07-30T02:03:37.419Z,19.96
2022-07-30T02:06:12.228Z,20.03
2022-07-30T02:08:42.544Z,20.03
2022-07-30T02:11:14.208Z,20.05
2022-07-30T02:13:48.522Z,20.03
2022-07-30T02:16:21.173Z,20.10
2022-07-30T02:18:58.375Z,20.07
2022-07-30T02:21:36.642Z,20.10
2022-07-30T02:24:09.193Z,20.12
2022-07-30T02:26:40.133Z,20.16
2022-07-30T02:29:11.364Z,20.17
2022-07-30T02:31:41.869Z,20.16
2022-07-30T02:34:12.120Z,20.08
2022-07-30T02:36:43.374Z,20.10
2022-07-30T02:39:14.275Z,20.16
2022-07-30T02:41:49.727Z,20.18
2022-07-30T02:44:20.049Z,20.18
2022-07-30T02:46:50.194Z,20.15
2022-07-30T02:49:20.563Z,20.13
2022-07-30T02:51:48.753Z,20.12
2022-07-30T02:54:19.909Z,20.12
2022-07-30T02:56:51.974Z,20.11
2022-07-30T02:59:21.993Z,20.16
2022-07-30T03:01:50.478Z,20.17
2022-07-30T03:04:22.076Z,20.15
2022-07-30T03:06:51.095Z,20.13
2022-07-30T03:09:19.721Z,20.05
2022-07-30T03:11:52.779Z,20.03
2022-07-30T03:14:21.052Z,20.02
2022-07-30T03:16:57.131Z,20.05
2022-07-30T03:19:31.048Z,19.97
2022-07-30T03:22:02.410Z,19.98
2022-07-30T03:24:32.821Z,19.99
2022-07-30T03:27:03.956Z,19.98
2022-07-30T03:29:33.986Z,19.94
2022-07-30T03:32:02.729Z,19.97
2022-07-30T03:34:35.104Z,19.94
2022-07-30T03:37:06.413Z,19.89
2022-07-30T03:39:36.048Z,19.89
2022-07-30T03:42:07.748Z,19.84
2022-07-30T03:44:36.498Z,19.93
2022-07-30T03:47:06.428Z,19.90
2022-07-30T03:49:34.957Z,19.88
2022-07-30T03:52:04.501Z,19.87
2022-07-30T03:54:34.405Z,19.82
2022-07-30T03:57:03.219Z,19.85
2022-07-30T03:59:34.395Z,19.89
2022-07-30T04:02:07.156Z,19.85
2022-07-30T04:04:35.755Z,19.90
2022-07-30T04:07:03.972Z,19.86
2022-07-30T04:09:32.081Z,19.84
2022-07-30T04:12:00.038Z,19.82
2022-07-30T04:14:28.221Z,19.81
2022-07-30T04:17:04.072Z,19.79
2022-07-30T04:19:37.823Z,19.77
2022-07-30T04:22:06.784Z,19.72
2022-07-30T04:24:36.004Z,19.77
2022-07-30T04:27:04.835Z,19.77
2022-07-30T04:29:33.268Z,19.75
2022-07-30T04:32:02.888Z,19.77
2022-07-30T04:34:30.786Z,19.71
2022-07-30T04:36:59.269Z,19.65
2022-07-30T04:39:28.574Z,19.67
2022-07-30T04:41:56.570Z,19.64
2022-07-30T04:44:24.608Z,19.72
2022-07-30T04:46:52.563Z,19.74
2022-07-30T04:49:23.632Z,19.72
2022-07-30T04:51:53.014Z,19.73
2022-07-30T04:54:24.182Z,19.77
2022-07-30T04:56:55.938Z,19.73
2022-07-30T04:59:26.479Z,19.79
2022-07-30T05:01:57.873Z,19.74
2022-07-30T05:04:29.293Z,19.71
2022-07-30T05:06:59.371Z,19.70
2022-07-30T05:09:28.358Z,19.71
2022-07-30T05:11:57.612Z,19.65
2022-07-30T05:14:26.225Z,19.75
2022-07-30T05:16:55.903Z,19.79
2022-07-30T05:19:25.224Z,19.78
2022-07-30T05:21:54.702Z,19.73
2022-07-30T05:24:23.163Z,19.77
2022-07-30T05:26:51.232Z,19.84
2022-07-30T05:29:20.379Z,19.87
2022-07-30T05:31:49.141Z,19.89
2022-07-30T05:34:17.790Z,19.93
2022-07-30T05:36:46.433Z,19.97
2022-07-30T05:39:16.861Z,19.91
2022-07-30T05:41:44.859Z,19.88
2022-07-30T05:44:13.061Z,19.82
2022-07-30T05:46:41.325Z,19.95
2022-07-30T05:49:09.567Z,19.87
2022-07-30T05:51:37.768Z,19.89
2022-07-30T05:54:05.809Z,19.89
2022-07-30T05:56:36.075Z,19.91
2022-07-30T05:59:04.311Z,20.00
2022-07-30T06:01:32.290Z,20.09
2022-07-30T06:04:01.410Z,20.17
2022-07-30T06:06:29.407Z,20.20
2022-07-30T06:08:57.382Z,20.32
2022-07-30T06:11:25.350Z,20.32
2022-07-30T06:13:54.792Z,20.38
2022-07-30T06:16:22.851Z,20.38
2022-07-30T06:18:51.145Z,20.32
2022-07-30T06:21:19.214Z,20.45
2022-07-30T06:23:47.087Z,20.53
2022-07-30T06:26:15.216Z,20.66
2022-07-30T06:28:43.209Z,20.76
2022-07-30T06:31:12.616Z,20.88
2022-07-30T06:33:40.709Z,20.96
2022-07-30T06:36:09.038Z,20.96
2022-07-30T06:38:45.108Z,20.93
2022-07-30T06:41:13.268Z,20.89
2022-07-30T06:43:41.208Z,20.97
2022-07-30T06:46:09.304Z,21.04
2022-07-30T06:48:38.885Z,21.16
2022-07-30T06:51:06.931Z,21.30
2022-07-30T06:53:39.598Z,21.53
2022-07-30T06:56:10.786Z,21.60
2022-07-30T06:58:39.262Z,21.73
2022-07-30T07:01:10.854Z,21.78
2022-07-30T07:03:41.307Z,21.86
2022-07-30T07:06:09.505Z,21.91
2022-07-30T07:08:38.349Z,21.88
2022-07-30T07:11:06.496Z,21.97
2022-07-30T07:13:34.550Z,22.17
2022-07-30T07:16:02.877Z,22.34
2022-07-30T07:18:30.968Z,22.42
2022-07-30T07:21:00.422Z,22.54
2022-07-30T07:23:42.057Z,22.75
2022-07-30T07:26:11.857Z,22.77
2022-07-30T07:28:41.476Z,22.94
2022-07-30T07:31:10.361Z,23.22
2022-07-30T07:33:39.663Z,23.32
2022-07-30T07:36:09.215Z,23.41
2022-07-30T07:38:37.865Z,23.62
2022-07-30T07:41:06.583Z,23.76
2022-07-30T07:43:34.490Z,23.90
2022-07-30T07:46:02.577Z,23.93
2022-07-30T07:48:30.958Z,24.13
2022-07-30T07:51:00.492Z,24.27
2022-07-30T07:53:30.374Z,24.42
2022-07-30T07:55:58.895Z,24.49
2022-07-30T07:58:28.118Z,24.58
2022-07-30T08:00:57.598Z,24.76
2022-07-30T08:03:25.584Z,24.88
2022-07-30T08:05:58.217Z,25.15
2022-07-30T08:08:36.703Z,25.12
2022-07-30T08:11:05.722Z,25.46
2022-07-30T08:13:51.422Z,26.76
2022-07-30T08:16:21.191Z,28.77
2022-07-30T08:18:49.162Z,29.77
2022-07-30T08:21:17.097Z,30.23
2022-07-30T08:23:46.488Z,31.24
2022-07-30T08:26:14.444Z,31.92
2022-07-30T08:28:43.150Z,32.66
2022-07-30T08:31:11.501Z,33.26
2022-07-30T08:33:39.479Z,33.55
2022-07-30T08:36:09.732Z,34.83
2022-07-30T08:38:39.138Z,35.52
2022-07-30T08:41:08.504Z,35.89
2022-07-30T08:43:37.997Z,35.44
2022-07-30T08:46:09.910Z,36.28
2022-07-30T08:48:38.619Z,36.38
2022-07-30T08:51:07.198Z,36.50
2022-07-30T08:53:36.473Z,36.67
2022-07-30T08:56:07.008Z,36.80
2022-07-30T08:58:36.604Z,37.15
2022-07-30T09:01:06.738Z,37.25
2022-07-30T09:03:35.202Z,36.75
2022-07-30T09:06:04.876Z,36.43
2022-07-30T09:08:33.581Z,37.06
2022-07-30T09:11:01.596Z,37.28
2022-07-30T09:13:31.440Z,37.83
2022-07-30T09:16:00.751Z,37.51
2022-07-30T09:18:33.424Z,37.59
2022-07-30T09:21:03.255Z,37.16
2022-07-30T09:23:31.187Z,36.98
2022-07-30T09:26:00.945Z,37.48
2022-07-30T09:28:31.285Z,37.63
2022-07-30T09:31:01.812Z,37.66
2022-07-30T09:33:35.365Z,37.60
2022-07-30T09:36:04.904Z,36.82
2022-07-30T09:38:44.738Z,36.40
2022-07-30T09:41:29.298Z,36.15
2022-07-30T09:44:05.607Z,35.76
2022-07-30T09:46:47.914Z,35.09
2022-07-30T09:49:17.686Z,33.55
2022-07-30T09:51:54.793Z,32.57
2022-07-30T09:54:26.006Z,32.39
2022-07-30T09:57:23.184Z,32.03
2022-07-30T09:59:56.860Z,31.01
2022-07-30T10:02:35.339Z,30.33
2022-07-30T10:05:15.364Z,30.08
2022-07-30T10:07:52.288Z,29.85
2022-07-30T10:10:25.225Z,29.73
2022-07-30T10:12:58.157Z,29.54
2022-07-30T10:15:29.790Z,29.86
2022-07-30T10:18:00.564Z,30.09
2022-07-30T10:20:29.456Z,29.76
2022-07-30T10:22:58.285Z,29.33
2022-07-30T10:25:28.372Z,28.94
2022-07-30T10:27:58.067Z,28.77
2022-07-30T10:30:29.371Z,28.66
2022-07-30T10:33:00.345Z,28.47
2022-07-30T10:35:35.010Z,29.06
2022-07-30T10:38:13.470Z,29.20
2022-07-30T10:40:47.901Z,28.87
2022-07-30T10:43:36.292Z,28.47
2022-07-30T10:46:19.967Z,28.25
2022-07-30T10:48:52.805Z,27.83
2022-07-30T10:51:25.430Z,27.46
2022-07-30T10:54:02.621Z,27.44
2022-07-30T10:56:30.757Z,27.17
2022-07-30T10:59:04.145Z,27.02
2022-07-30T11:02:08.369Z,26.93
2022-07-30T11:04:37.667Z,26.69
2022-07-30T11:07:31.469Z,26.68
2022-07-30T11:10:05.321Z,26.86
2022-07-30T11:12:58.433Z,26.93
2022-07-30T11:15:54.933Z,26.70
2022-07-30T11:18:25.028Z,26.73
2022-07-30T11:21:21.394Z,26.62
2022-07-30T11:23:54.733Z,26.43
2022-07-30T11:26:53.250Z,26.55
2022-07-30T11:29:50.783Z,26.49
2022-07-30T11:32:29.778Z,26.44
2022-07-30T11:35:18.750Z,26.48
2022-07-30T11:38:13.035Z,26.53
2022-07-30T11:41:18.986Z,26.54
2022-07-30T11:43:47.098Z,26.51
2022-07-30T11:46:18.017Z,26.57
2022-07-30T11:49:00.114Z,26.56
2022-07-30T11:51:28.626Z,26.61
2022-07-30T11:54:03.941Z,26.67
2022-07-30T11:56:32.677Z,26.60
2022-07-30T11:59:04.637Z,26.78
2022-07-30T12:01:33.504Z,26.75
2022-07-30T12:04:05.875Z,26.76
2022-07-30T12:06:36.577Z,26.78
2022-07-30T12:09:04.534Z,26.87
2022-07-30T12:11:33.939Z,26.82
2022-07-30T12:14:02.812Z,26.81
2022-07-30T12:16:31.890Z,26.97
2022-07-30T12:19:05.479Z,27.24
2022-07-30T12:21:34.234Z,27.61
2022-07-30T12:24:04.415Z,27.48
2022-07-30T12:26:34.378Z,27.56
2022-07-30T12:29:05.222Z,27.66
2022-07-30T12:31:38.510Z,27.85
2022-07-30T12:34:22.103Z,28.22
2022-07-30T12:36:50.584Z,28.39
2022-07-30T12:39:22.907Z,28.44
2022-07-30T12:41:52.641Z,28.45
2022-07-30T12:44:35.941Z,28.55
2022-07-30T12:47:05.179Z,28.43
2022-07-30T12:49:36.553Z,28.07
2022-07-30T12:52:28.420Z,28.11
2022-07-30T12:55:08.724Z,27.94
2022-07-30T12:58:07.142Z,28.24
2022-07-30T13:00:52.084Z,28.37
2022-07-30T13:03:23.895Z,28.26
2022-07-30T13:05:55.418Z,28.09
2022-07-30T13:08:46.657Z,28.03
2022-07-30T13:11:15.077Z,28.05
2022-07-30T13:13:43.133Z,28.14
2022-07-30T13:16:11.205Z,27.99
2022-07-30T13:18:39.415Z,27.99
2022-07-30T13:21:10.212Z,28.06
2022-07-30T13:23:39.263Z,28.12
2022-07-30T13:26:08.455Z,28.11
2022-07-30T13:28:36.479Z,28.11
2022-07-30T13:31:04.775Z,28.03
2022-07-30T13:33:32.871Z,28.03
2022-07-30T13:36:00.946Z,28.04
2022-07-30T13:38:30.403Z,27.99
2022-07-30T13:41:02.392Z,27.99
2022-07-30T13:43:33.631Z,28.09
2022-07-30T13:46:03.038Z,28.05
2022-07-30T13:48:31.096Z,28.11
2022-07-30T13:50:59.040Z,27.93
2022-07-30T13:53:26.932Z,27.77
2022-07-30T13:55:56.240Z,27.71
2022-07-30T13:58:24.202Z,27.68
2022-07-30T14:00:52.255Z,27.79
2022-07-30T14:03:20.287Z,27.87
2022-07-30T14:05:49.203Z,27.89
2022-07-30T14:08:17.138Z,27.80
2022-07-30T14:10:45.182Z,27.72
2022-07-30T14:13:20.976Z,27.81
2022-07-30T14:15:49.705Z,27.95
2022-07-30T14:18:17.785Z,27.92
2022-07-30T14:20:48.733Z,27.95
2022-07-30T14:23:17.334Z,28.04
2022-07-30T14:25:45.273Z,27.92
2022-07-30T14:28:14.657Z,27.94
2022-07-30T14:30:42.717Z,27.81
2022-07-30T14:33:10.915Z,27.79
2022-07-30T14:35:38.784Z,27.67
2022-07-30T14:38:06.790Z,27.70
2022-07-30T14:40:35.106Z,27.69
2022-07-30T14:43:03.051Z,27.64
2022-07-30T14:45:33.225Z,27.71
2022-07-30T14:48:01.136Z,27.77
2022-07-30T14:50:30.752Z,27.79
2022-07-30T14:52:58.793Z,27.65
2022-07-30T14:55:27.014Z,27.66
2022-07-30T14:57:55.025Z,27.65
2022-07-30T15:00:24.447Z,27.70
2022-07-30T15:02:53.835Z,27.63
2022-07-30T15:05:22.003Z,27.50
2022-07-30T15:07:50.010Z,27.34
2022-07-30T15:10:17.995Z,27.29
2022-07-30T15:12:45.928Z,27.27
2022-07-30T15:15:16.317Z,27.18
2022-07-30T15:17:44.163Z,27.22
2022-07-30T15:20:14.389Z,27.22
2022-07-30T15:22:42.563Z,27.21
2022-07-30T15:25:10.561Z,27.23
2022-07-30T15:27:38.517Z,27.18
2022-07-30T15:30:07.335Z,27.13
2022-07-30T15:32:35.235Z,27.17
2022-07-30T15:35:03.240Z,27.23
2022-07-30T15:37:32.717Z,27.27
2022-07-30T15:40:00.711Z,27.25
2022-07-30T15:42:29.783Z,27.28
2022-07-30T15:45:15.844Z,27.34
2022-07-30T15:47:45.140Z,27.46
2022-07-30T15:50:13.407Z,27.50
2022-07-30T15:52:42.856Z,27.57
2022-07-30T15:55:11.672Z,27.66
2022-07-30T15:57:40.630Z,27.76
2022-07-30T16:00:09.917Z,27.68
2022-07-30T16:02:38.370Z,27.71
2022-07-30T16:05:11.805Z,27.62
2022-07-30T16:07:42.954Z,27.70
2022-07-30T16:10:11.941Z,27.72
2022-07-30T16:12:40.225Z,27.74
2022-07-30T16:15:09.688Z,27.76
2022-07-30T16:17:37.878Z,27.76
2022-07-30T16:20:06.953Z,27.73
2022-07-30T16:22:34.999Z,27.67
2022-07-30T16:25:04.520Z,27.56
2022-07-30T16:27:32.429Z,27.61
2022-07-30T16:30:00.335Z,27.65
2022-07-30T16:32:28.425Z,27.68
2022-07-30T16:34:56.293Z,27.59
2022-07-30T16:37:24.184Z,27.60
2022-07-30T16:39:54.569Z,27.51
2022-07-30T16:42:23.868Z,27.42
2022-07-30T16:44:51.785Z,27.32
2022-07-30T16:47:19.697Z,27.13
2022-07-30T16:49:47.590Z,27.16
2022-07-30T16:52:16.013Z,27.19
2022-07-30T16:54:43.944Z,27.14
2022-07-30T16:57:11.969Z,27.14
2022-07-30T16:59:43.643Z,27.12
2022-07-30T17:02:12.306Z,27.05
2022-07-30T17:04:41.731Z,27.03
2022-07-30T17:07:09.808Z,26.96
2022-07-30T17:09:37.814Z,26.87
2022-07-30T17:12:12.252Z,26.80
2022-07-30T17:14:42.798Z,26.75
2022-07-30T17:17:14.409Z,26.75
2022-07-30T17:19:43.126Z,26.67
2022-07-30T17:22:11.250Z,26.55
2022-07-30T17:24:39.240Z,26.51
2022-07-30T17:27:07.305Z,26.45
2022-07-30T17:29:48.381Z,26.39
2022-07-30T17:32:20.262Z,26.37
2022-07-30T17:34:48.910Z,26.36
2022-07-30T17:37:17.473Z,26.27
2022-07-30T17:40:27.064Z,26.22
2022-07-30T17:42:33.569Z,26.08
2022-07-30T17:45:02.481Z,26.07
2022-07-30T17:47:31.819Z,26.00
2022-07-30T17:49:59.930Z,25.96
2022-07-30T17:52:27.971Z,25.86
2022-07-30T17:54:56.042Z,25.78
2022-07-30T17:57:23.999Z,25.71
2022-07-30T17:59:52.071Z,25.61
2022-07-30T18:02:20.063Z,25.61
2022-07-30T18:04:56.632Z,25.60
2022-07-30T18:07:24.866Z,25.61
2022-07-30T18:09:52.862Z,25.58
2022-07-30T18:12:21.516Z,25.60
2022-07-30T18:14:55.458Z,25.49
2022-07-30T18:17:23.527Z,25.48
2022-07-30T18:19:51.498Z,25.44
2022-07-30T18:22:28.185Z,25.46
2022-07-30T18:24:57.774Z,25.43
2022-07-30T18:27:26.483Z,25.45
2022-07-30T18:29:54.533Z,25.40
2022-07-30T18:32:23.653Z,25.41
2022-07-30T18:34:51.908Z,25.41
2022-07-30T18:37:21.362Z,25.33
2022-07-30T18:39:49.298Z,25.30
2022-07-30T18:42:17.211Z,25.26
2022-07-30T18:44:45.105Z,25.25
2022-07-30T18:47:13.484Z,25.20
2022-07-30T18:49:41.483Z,25.17
2022-07-30T18:52:09.405Z,25.14
2022-07-30T18:54:39.519Z,25.11
2022-07-30T18:57:12.675Z,25.08
2022-07-30T18:59:43.145Z,25.09
2022-07-30T19:02:11.431Z,25.11
2022-07-30T19:04:39.550Z,25.09
2022-07-30T19:07:08.450Z,25.00
2022-07-30T19:09:36.692Z,24.90
2022-07-30T19:12:07.005Z,24.79
2022-07-30T19:14:35.525Z,24.68
2022-07-30T19:17:03.857Z,24.63
2022-07-30T19:19:42.632Z,24.61
2022-07-30T19:22:11.152Z,24.57
2022-07-30T19:24:39.957Z,24.46
2022-07-30T19:27:13.986Z,24.46
2022-07-30T19:29:43.558Z,24.37
2022-07-30T19:32:12.117Z,24.29
2022-07-30T19:34:41.216Z,24.25
2022-07-30T19:37:10.971Z,24.18
2022-07-30T19:40:05.247Z,24.13
2022-07-30T19:42:31.849Z,24.09
2022-07-30T19:45:11.125Z,24.01
2022-07-30T19:47:42.474Z,23.91
2022-07-30T19:50:12.038Z,23.83
2022-07-30T19:52:51.066Z,23.80
2022-07-30T19:55:35.479Z,23.70
2022-07-30T19:58:16.202Z,23.65
2022-07-30T20:00:52.766Z,23.48
2022-07-30T20:03:25.713Z,23.43
2022-07-30T20:08:30.055Z,23.30
2022-07-30T20:10:59.364Z,23.20
2022-07-30T20:13:45.538Z,23.14
2022-07-30T20:16:14.580Z,23.06
2022-07-30T20:18:44.436Z,22.97
2022-07-30T20:21:15.324Z,22.95
2022-07-30T20:23:44.448Z,22.93
2022-07-30T20:26:15.269Z,22.87
2022-07-30T20:28:52.525Z,22.78
2022-07-30T20:31:21.418Z,22.73
2022-07-30T20:33:50.866Z,22.63
2022-07-30T20:36:19.250Z,22.63
2022-07-30T20:38:47.878Z,22.60
2022-07-30T20:41:16.153Z,22.54
2022-07-30T20:43:52.622Z,22.47
2022-07-30T20:46:23.780Z,22.37
2022-07-30T20:48:53.018Z,22.29
2022-07-30T20:51:21.648Z,22.28
2022-07-30T20:54:01.959Z,22.31
2022-07-30T20:56:30.419Z,22.32
2022-07-30T20:58:59.918Z,22.31
2022-07-30T21:01:30.746Z,22.28
2022-07-30T21:04:02.031Z,22.20
2022-07-30T21:06:31.353Z,22.20
2022-07-30T21:09:02.988Z,22.06
2022-07-30T21:11:31.442Z,22.10
2022-07-30T21:14:05.834Z,22.05
2022-07-30T21:16:40.770Z,22.02
2022-07-30T21:19:12.933Z,22.02
2022-07-30T21:21:48.225Z,21.85
2022-07-30T21:24:21.080Z,21.83
2022-07-30T21:26:52.183Z,21.86
2022-07-30T21:29:21.730Z,21.81
2022-07-30T21:32:01.514Z,21.88
2022-07-30T21:34:40.384Z,21.83
2022-07-30T21:37:10.608Z,21.83
2022-07-30T21:39:43.412Z,21.83
2022-07-30T21:42:11.601Z,21.85
2022-07-30T21:44:41.198Z,21.80
2022-07-30T21:47:10.876Z,21.79
2022-07-30T21:49:39.636Z,21.82
2022-07-30T21:52:09.036Z,21.87
2022-07-30T21:54:48.166Z,21.79
2022-07-30T21:57:26.295Z,21.72
2022-07-30T21:59:59.593Z,21.67
2022-07-30T22:02:28.265Z,21.72
2022-07-30T22:04:56.461Z,21.70
2022-07-30T22:07:27.190Z,21.72
2022-07-30T22:09:55.313Z,21.69
2022-07-30T22:12:28.880Z,21.71
2022-07-30T22:14:57.395Z,21.63
2022-07-30T22:17:37.315Z,21.64
2022-07-30T22:20:15.084Z,21.59
2022-07-30T22:22:43.102Z,21.47
2022-07-30T22:25:11.863Z,21.49
2022-07-30T22:27:55.989Z,21.48
2022-07-30T22:30:26.702Z,21.53
2022-07-30T22:33:07.148Z,21.44
2022-07-30T22:35:35.400Z,21.30
2022-07-30T22:38:04.014Z,21.38
2022-07-30T22:40:32.585Z,21.38
2022-07-30T22:43:04.250Z,21.42
2022-07-30T22:45:48.101Z,21.36
2022-07-30T22:48:20.620Z,21.30
2022-07-30T22:50:55.807Z,21.27
2022-07-30T22:54:03.396Z,21.25
2022-07-30T22:56:14.282Z,21.24
2022-07-30T22:58:44.465Z,21.19
2022-07-30T23:01:12.484Z,21.20
2022-07-30T23:03:42.170Z,21.13
2022-07-30T23:06:14.656Z,21.19
2022-07-30T23:08:44.265Z,21.18
2022-07-30T23:11:12.237Z,21.17
2022-07-30T23:13:40.205Z,21.09
2022-07-30T23:16:08.267Z,21.05
2022-07-30T23:18:36.340Z,21.04
2022-07-30T23:21:06.019Z,20.99
2022-07-30T23:23:35.761Z,20.99
2022-07-30T23:26:04.049Z,20.94
2022-07-30T23:28:32.126Z,20.88
2022-07-30T23:31:00.592Z,20.83
2022-07-30T23:33:28.890Z,20.82
2022-07-30T23:35:56.868Z,20.84
2022-07-30T23:38:26.316Z,20.77
2022-07-30T23:40:54.488Z,20.76
2022-07-30T23:43:22.440Z,20.73
2022-07-30T23:45:50.429Z,20.67
2022-07-30T23:48:18.442Z,20.64
2022-07-30T23:50:46.351Z,20.71
2022-07-30T23:53:14.421Z,20.72
2022-07-30T23:55:46.897Z,20.73
2022-07-30T23:58:15.148Z,20.71
